sensor_id;sensor_type;location;lat;lon;timestamp;P1;durP1;ratioP1;P2;durP2;ratioP2
13660;SDS011;6903;49.480;11.102;2023-05-14T00:01:32;21.53;;;15.90;;
13660;SDS011;6903;49.480;11.102;2023-05-14T00:03:58;20.77;;;15.83;;
13660;SDS011;6903;49.480;11.102;2023-05-14T00:06:23;21.93;;;17.00;;
13660;SDS011;6903;49.480;11.102;2023-05-14T00:08:48;23.23;;;16.70;;
13660;SDS011;6903;49.480;11.102;2023-05-14T00:11:13;26.73;;;18.03;;
13660;SDS011;6903;49.480;11.102;2023-05-14T00:13:39;28.20;;;20.90;;
13660;SDS011;6903;49.480;11.102;2023-05-14T00:16:04;27.33;;;22.60;;
13660;SDS011;6903;49.480;11.102;2023-05-14T00:18:30;28.93;;;21.70;;
13660;SDS011;6903;49.480;11.102;2023-05-14T00:20:55;26.90;;;21.10;;
13660;SDS011;6903;49.480;11.102;2023-05-14T00:23:21;24.87;;;18.53;;
13660;SDS011;6903;49.480;11.102;2023-05-14T00:25:46;28.00;;;18.63;;
13660;SDS011;6903;49.480;11.102;2023-05-14T00:28:11;26.43;;;18.63;;
13660;SDS011;6903;49.480;11.102;2023-05-14T00:30:37;28.43;;;20.17;;
13660;SDS011;6903;49.480;11.102;2023-05-14T00:33:03;28.87;;;17.27;;
13660;SDS011;6903;49.480;11.102;2023-05-14T00:35:29;25.07;;;18.60;;
13660;SDS011;6903;49.480;11.102;2023-05-14T00:37:54;24.90;;;17.90;;
13660;SDS011;6903;49.480;11.102;2023-05-14T00:40:21;26.57;;;18.13;;
13660;SDS011;6903;49.480;11.102;2023-05-14T00:42:49;25.20;;;18.13;;
13660;SDS011;6903;49.480;11.102;2023-05-14T00:45:15;25.47;;;19.40;;
13660;SDS011;6903;49.480;11.102;2023-05-14T00:47:40;26.53;;;18.43;;
13660;SDS011;6903;49.480;11.102;2023-05-14T00:50:05;24.00;;;18.17;;
13660;SDS011;6903;49.480;11.102;2023-05-14T00:52:32;27.63;;;18.57;;
13660;SDS011;6903;49.480;11.102;2023-05-14T00:54:57;27.50;;;18.60;;
13660;SDS011;6903;49.480;11.102;2023-05-14T00:57:23;24.03;;;17.33;;
13660;SDS011;6903;49.480;11.102;2023-05-14T00:59:48;22.77;;;17.60;;
13660;SDS011;6903;49.480;11.102;2023-05-14T01:02:14;20.57;;;15.43;;
13660;SDS011;6903;49.480;11.102;2023-05-14T01:04:40;18.87;;;14.57;;
13660;SDS011;6903;49.480;11.102;2023-05-14T01:10:02;18.40;;;13.57;;
13660;SDS011;6903;49.480;11.102;2023-05-14T01:12:37;15.87;;;12.93;;
13660;SDS011;6903;49.480;11.102;2023-05-14T01:15:14;17.27;;;12.80;;
13660;SDS011;6903;49.480;11.102;2023-05-14T01:17:52;17.30;;;13.80;;
13660;SDS011;6903;49.480;11.102;2023-05-14T01:20:19;15.07;;;12.33;;
13660;SDS011;6903;49.480;11.102;2023-05-14T01:22:45;17.73;;;14.30;;
13660;SDS011;6903;49.480;11.102;2023-05-14T01:25:10;17.07;;;13.90;;
13660;SDS011;6903;49.480;11.102;2023-05-14T01:30:38;19.57;;;14.73;;
13660;SDS011;6903;49.480;11.102;2023-05-14T01:33:09;21.47;;;14.97;;
13660;SDS011;6903;49.480;11.102;2023-05-14T01:35:37;20.87;;;15.40;;
13660;SDS011;6903;49.480;11.102;2023-05-14T01:38:04;20.90;;;15.47;;
13660;SDS011;6903;49.480;11.102;2023-05-14T01:40:35;20.30;;;15.07;;
13660;SDS011;6903;49.480;11.102;2023-05-14T01:43:01;19.53;;;14.97;;
13660;SDS011;6903;49.480;11.102;2023-05-14T01:45:28;19.47;;;14.77;;
13660;SDS011;6903;49.480;11.102;2023-05-14T01:47:54;20.20;;;14.70;;
13660;SDS011;6903;49.480;11.102;2023-05-14T01:50:20;17.20;;;14.10;;
13660;SDS011;6903;49.480;11.102;2023-05-14T01:52:45;22.17;;;14.67;;
13660;SDS011;6903;49.480;11.102;2023-05-14T01:55:12;19.70;;;14.87;;
13660;SDS011;6903;49.480;11.102;2023-05-14T01:57:37;22.13;;;15.27;;
13660;SDS011;6903;49.480;11.102;2023-05-14T02:00:03;19.13;;;13.43;;
13660;SDS011;6903;49.480;11.102;2023-05-14T02:02:29;17.50;;;14.23;;
13660;SDS011;6903;49.480;11.102;2023-05-14T02:04:55;21.13;;;13.97;;
13660;SDS011;6903;49.480;11.102;2023-05-14T02:07:20;20.83;;;14.63;;
13660;SDS011;6903;49.480;11.102;2023-05-14T02:09:45;18.43;;;14.00;;
13660;SDS011;6903;49.480;11.102;2023-05-14T02:12:11;20.43;;;14.97;;
13660;SDS011;6903;49.480;11.102;2023-05-14T02:14:36;18.60;;;14.00;;
13660;SDS011;6903;49.480;11.102;2023-05-14T02:17:01;18.47;;;14.03;;
13660;SDS011;6903;49.480;11.102;2023-05-14T02:19:27;18.13;;;14.67;;
13660;SDS011;6903;49.480;11.102;2023-05-14T02:21:53;16.07;;;13.97;;
13660;SDS011;6903;49.480;11.102;2023-05-14T02:24:18;17.53;;;14.70;;
13660;SDS011;6903;49.480;11.102;2023-05-14T02:26:43;16.93;;;13.63;;
13660;SDS011;6903;49.480;11.102;2023-05-14T02:29:09;16.20;;;13.13;;
13660;SDS011;6903;49.480;11.102;2023-05-14T02:31:34;17.00;;;13.13;;
13660;SDS011;6903;49.480;11.102;2023-05-14T02:34:00;19.10;;;13.60;;
13660;SDS011;6903;49.480;11.102;2023-05-14T02:36:25;15.00;;;13.17;;
13660;SDS011;6903;49.480;11.102;2023-05-14T02:38:51;16.30;;;12.87;;
13660;SDS011;6903;49.480;11.102;2023-05-14T02:41:16;13.70;;;11.63;;
13660;SDS011;6903;49.480;11.102;2023-05-14T02:43:41;14.07;;;11.60;;
13660;SDS011;6903;49.480;11.102;2023-05-14T02:46:07;15.70;;;12.70;;
13660;SDS011;6903;49.480;11.102;2023-05-14T02:48:32;16.73;;;11.33;;
13660;SDS011;6903;49.480;11.102;2023-05-14T02:50:57;14.30;;;11.63;;
13660;SDS011;6903;49.480;11.102;2023-05-14T02:53:23;13.13;;;11.70;;
13660;SDS011;6903;49.480;11.102;2023-05-14T02:55:48;13.47;;;11.20;;
13660;SDS011;6903;49.480;11.102;2023-05-14T02:58:13;13.03;;;10.67;;
13660;SDS011;6903;49.480;11.102;2023-05-14T03:00:39;11.30;;;9.30;;
13660;SDS011;6903;49.480;11.102;2023-05-14T03:03:04;11.57;;;10.30;;
13660;SDS011;6903;49.480;11.102;2023-05-14T03:05:29;11.77;;;9.73;;
13660;SDS011;6903;49.480;11.102;2023-05-14T03:07:55;10.30;;;9.20;;
13660;SDS011;6903;49.480;11.102;2023-05-14T03:10:20;10.43;;;9.13;;
13660;SDS011;6903;49.480;11.102;2023-05-14T03:12:45;12.47;;;9.90;;
13660;SDS011;6903;49.480;11.102;2023-05-14T03:15:11;12.77;;;10.07;;
13660;SDS011;6903;49.480;11.102;2023-05-14T03:17:36;9.93;;;8.93;;
13660;SDS011;6903;49.480;11.102;2023-05-14T03:20:02;9.67;;;8.77;;
13660;SDS011;6903;49.480;11.102;2023-05-14T03:22:27;10.20;;;9.07;;
13660;SDS011;6903;49.480;11.102;2023-05-14T03:24:53;9.60;;;8.60;;
13660;SDS011;6903;49.480;11.102;2023-05-14T03:27:18;10.37;;;8.30;;
13660;SDS011;6903;49.480;11.102;2023-05-14T03:29:43;11.33;;;8.53;;
13660;SDS011;6903;49.480;11.102;2023-05-14T03:32:09;9.97;;;8.97;;
13660;SDS011;6903;49.480;11.102;2023-05-14T03:34:34;9.87;;;8.87;;
13660;SDS011;6903;49.480;11.102;2023-05-14T03:36:59;9.07;;;8.17;;
13660;SDS011;6903;49.480;11.102;2023-05-14T03:39:25;9.70;;;8.70;;
13660;SDS011;6903;49.480;11.102;2023-05-14T03:41:50;9.80;;;8.63;;
13660;SDS011;6903;49.480;11.102;2023-05-14T03:44:15;9.37;;;8.03;;
13660;SDS011;6903;49.480;11.102;2023-05-14T03:46:41;9.30;;;8.30;;
13660;SDS011;6903;49.480;11.102;2023-05-14T03:49:06;10.20;;;8.90;;
13660;SDS011;6903;49.480;11.102;2023-05-14T03:51:32;9.10;;;8.10;;
13660;SDS011;6903;49.480;11.102;2023-05-14T03:53:57;8.90;;;8.00;;
13660;SDS011;6903;49.480;11.102;2023-05-14T03:56:23;8.60;;;7.80;;
13660;SDS011;6903;49.480;11.102;2023-05-14T03:58:48;8.70;;;7.50;;
13660;SDS011;6903;49.480;11.102;2023-05-14T04:01:14;9.20;;;7.77;;
13660;SDS011;6903;49.480;11.102;2023-05-14T04:03:39;10.40;;;7.97;;
13660;SDS011;6903;49.480;11.102;2023-05-14T04:06:04;8.67;;;7.40;;
13660;SDS011;6903;49.480;11.102;2023-05-14T04:08:30;9.13;;;8.17;;
13660;SDS011;6903;49.480;11.102;2023-05-14T04:10:55;8.57;;;7.67;;
13660;SDS011;6903;49.480;11.102;2023-05-14T04:13:20;9.30;;;8.40;;
13660;SDS011;6903;49.480;11.102;2023-05-14T04:15:46;8.73;;;7.83;;
13660;SDS011;6903;49.480;11.102;2023-05-14T04:18:11;9.77;;;8.57;;
13660;SDS011;6903;49.480;11.102;2023-05-14T04:20:36;8.83;;;7.93;;
13660;SDS011;6903;49.480;11.102;2023-05-14T04:23:02;9.90;;;8.30;;
13660;SDS011;6903;49.480;11.102;2023-05-14T04:25:27;8.70;;;7.80;;
13660;SDS011;6903;49.480;11.102;2023-05-14T04:27:52;9.00;;;8.07;;
13660;SDS011;6903;49.480;11.102;2023-05-14T04:30:18;8.40;;;7.57;;
13660;SDS011;6903;49.480;11.102;2023-05-14T04:32:43;8.33;;;7.40;;
13660;SDS011;6903;49.480;11.102;2023-05-14T04:35:08;10.73;;;8.10;;
13660;SDS011;6903;49.480;11.102;2023-05-14T04:37:34;8.43;;;7.40;;
13660;SDS011;6903;49.480;11.102;2023-05-14T04:40:00;8.37;;;7.47;;
13660;SDS011;6903;49.480;11.102;2023-05-14T04:42:25;8.63;;;7.13;;
13660;SDS011;6903;49.480;11.102;2023-05-14T04:44:50;8.67;;;7.33;;
13660;SDS011;6903;49.480;11.102;2023-05-14T04:47:16;8.87;;;7.43;;
13660;SDS011;6903;49.480;11.102;2023-05-14T04:49:41;8.33;;;7.53;;
13660;SDS011;6903;49.480;11.102;2023-05-14T04:52:07;11.70;;;8.00;;
13660;SDS011;6903;49.480;11.102;2023-05-14T04:54:33;8.00;;;7.00;;
13660;SDS011;6903;49.480;11.102;2023-05-14T04:56:58;7.93;;;6.87;;
13660;SDS011;6903;49.480;11.102;2023-05-14T04:59:27;8.10;;;7.23;;
13660;SDS011;6903;49.480;11.102;2023-05-14T05:01:55;7.40;;;6.60;;
13660;SDS011;6903;49.480;11.102;2023-05-14T05:04:21;7.40;;;6.70;;
13660;SDS011;6903;49.480;11.102;2023-05-14T05:06:48;6.80;;;6.20;;
13660;SDS011;6903;49.480;11.102;2023-05-14T05:09:13;6.93;;;6.10;;
13660;SDS011;6903;49.480;11.102;2023-05-14T05:11:38;7.00;;;6.30;;
13660;SDS011;6903;49.480;11.102;2023-05-14T05:14:04;6.57;;;5.87;;
13660;SDS011;6903;49.480;11.102;2023-05-14T05:16:29;6.67;;;5.97;;
13660;SDS011;6903;49.480;11.102;2023-05-14T05:18:55;7.13;;;6.37;;
13660;SDS011;6903;49.480;11.102;2023-05-14T05:21:20;7.10;;;6.40;;
13660;SDS011;6903;49.480;11.102;2023-05-14T05:23:45;7.00;;;6.30;;
13660;SDS011;6903;49.480;11.102;2023-05-14T05:26:10;6.50;;;5.87;;
13660;SDS011;6903;49.480;11.102;2023-05-14T05:28:36;6.30;;;5.70;;
13660;SDS011;6903;49.480;11.102;2023-05-14T05:31:01;7.07;;;5.50;;
13660;SDS011;6903;49.480;11.102;2023-05-14T05:33:26;6.70;;;6.00;;
13660;SDS011;6903;49.480;11.102;2023-05-14T05:35:52;9.30;;;5.87;;
13660;SDS011;6903;49.480;11.102;2023-05-14T05:38:17;6.33;;;5.17;;
13660;SDS011;6903;49.480;11.102;2023-05-14T05:40:43;4.97;;;4.57;;
13660;SDS011;6903;49.480;11.102;2023-05-14T05:43:08;5.75;;;4.97;;
13660;SDS011;6903;49.480;11.102;2023-05-14T05:45:33;6.63;;;4.82;;
13660;SDS011;6903;49.480;11.102;2023-05-14T05:47:59;5.18;;;4.68;;
13660;SDS011;6903;49.480;11.102;2023-05-14T05:50:24;5.32;;;4.82;;
13660;SDS011;6903;49.480;11.102;2023-05-14T05:52:50;5.40;;;4.85;;
13660;SDS011;6903;49.480;11.102;2023-05-14T05:55:16;5.38;;;4.88;;
13660;SDS011;6903;49.480;11.102;2023-05-14T05:57:41;5.38;;;4.45;;
13660;SDS011;6903;49.480;11.102;2023-05-14T06:00:06;5.03;;;4.63;;
13660;SDS011;6903;49.480;11.102;2023-05-14T06:02:39;5.30;;;4.80;;
13660;SDS011;6903;49.480;11.102;2023-05-14T06:05:05;5.82;;;4.47;;
13660;SDS011;6903;49.480;11.102;2023-05-14T06:07:32;5.60;;;4.75;;
13660;SDS011;6903;49.480;11.102;2023-05-14T06:09:58;6.15;;;5.38;;
13660;SDS011;6903;49.480;11.102;2023-05-14T06:12:23;7.45;;;5.57;;
13660;SDS011;6903;49.480;11.102;2023-05-14T06:14:48;5.80;;;5.25;;
13660;SDS011;6903;49.480;11.102;2023-05-14T06:17:14;6.93;;;5.55;;
13660;SDS011;6903;49.480;11.102;2023-05-14T06:19:39;6.10;;;5.50;;
13660;SDS011;6903;49.480;11.102;2023-05-14T06:22:04;6.43;;;4.95;;
13660;SDS011;6903;49.480;11.102;2023-05-14T06:24:29;5.75;;;5.15;;
13660;SDS011;6903;49.480;11.102;2023-05-14T06:26:55;6.53;;;5.20;;
13660;SDS011;6903;49.480;11.102;2023-05-14T06:29:20;7.97;;;5.70;;
13660;SDS011;6903;49.480;11.102;2023-05-14T06:31:45;4.85;;;4.35;;
13660;SDS011;6903;49.480;11.102;2023-05-14T06:34:11;6.20;;;5.15;;
13660;SDS011;6903;49.480;11.102;2023-05-14T06:36:36;5.85;;;5.25;;
13660;SDS011;6903;49.480;11.102;2023-05-14T06:39:01;6.03;;;5.13;;
13660;SDS011;6903;49.480;11.102;2023-05-14T06:41:27;6.43;;;5.70;;
13660;SDS011;6903;49.480;11.102;2023-05-14T06:43:53;5.53;;;4.95;;
13660;SDS011;6903;49.480;11.102;2023-05-14T06:46:19;7.15;;;5.80;;
13660;SDS011;6903;49.480;11.102;2023-05-14T06:48:45;6.80;;;6.00;;
13660;SDS011;6903;49.480;11.102;2023-05-14T06:51:10;6.07;;;5.15;;
13660;SDS011;6903;49.480;11.102;2023-05-14T06:53:37;5.70;;;5.10;;
13660;SDS011;6903;49.480;11.102;2023-05-14T06:56:02;6.07;;;5.47;;
13660;SDS011;6903;49.480;11.102;2023-05-14T06:58:28;6.65;;;5.53;;
13660;SDS011;6903;49.480;11.102;2023-05-14T07:00:53;5.55;;;4.95;;
13660;SDS011;6903;49.480;11.102;2023-05-14T07:03:18;6.30;;;5.55;;
13660;SDS011;6903;49.480;11.102;2023-05-14T07:05:44;7.63;;;5.43;;
13660;SDS011;6903;49.480;11.102;2023-05-14T07:08:10;5.20;;;4.50;;
13660;SDS011;6903;49.480;11.102;2023-05-14T07:10:36;5.97;;;5.38;;
13660;SDS011;6903;49.480;11.102;2023-05-14T07:13:01;5.78;;;5.05;;
13660;SDS011;6903;49.480;11.102;2023-05-14T07:15:27;6.25;;;5.03;;
13660;SDS011;6903;49.480;11.102;2023-05-14T07:17:52;6.15;;;5.50;;
13660;SDS011;6903;49.480;11.102;2023-05-14T07:20:18;6.15;;;5.55;;
13660;SDS011;6903;49.480;11.102;2023-05-14T07:22:43;6.57;;;4.70;;
13660;SDS011;6903;49.480;11.102;2023-05-14T07:25:08;4.93;;;4.43;;
13660;SDS011;6903;49.480;11.102;2023-05-14T07:27:34;6.32;;;5.30;;
13660;SDS011;6903;49.480;11.102;2023-05-14T07:29:59;5.38;;;4.88;;
13660;SDS011;6903;49.480;11.102;2023-05-14T07:32:24;4.53;;;3.97;;
13660;SDS011;6903;49.480;11.102;2023-05-14T07:34:50;5.45;;;4.72;;
13660;SDS011;6903;49.480;11.102;2023-05-14T07:37:15;6.47;;;5.03;;
13660;SDS011;6903;49.480;11.102;2023-05-14T07:39:40;6.88;;;4.93;;
13660;SDS011;6903;49.480;11.102;2023-05-14T07:42:06;5.55;;;4.93;;
13660;SDS011;6903;49.480;11.102;2023-05-14T07:44:31;5.93;;;5.18;;
13660;SDS011;6903;49.480;11.102;2023-05-14T07:46:56;5.45;;;4.95;;
13660;SDS011;6903;49.480;11.102;2023-05-14T07:49:22;5.10;;;4.60;;
13660;SDS011;6903;49.480;11.102;2023-05-14T07:51:47;7.47;;;4.93;;
13660;SDS011;6903;49.480;11.102;2023-05-14T07:54:12;5.90;;;5.30;;
13660;SDS011;6903;49.480;11.102;2023-05-14T07:56:37;5.80;;;5.20;;
13660;SDS011;6903;49.480;11.102;2023-05-14T07:59:03;5.80;;;5.13;;
13660;SDS011;6903;49.480;11.102;2023-05-14T08:01:28;5.95;;;5.18;;
13660;SDS011;6903;49.480;11.102;2023-05-14T08:03:54;5.10;;;4.60;;
13660;SDS011;6903;49.480;11.102;2023-05-14T08:06:19;4.97;;;4.47;;
13660;SDS011;6903;49.480;11.102;2023-05-14T08:08:45;5.40;;;4.90;;
13660;SDS011;6903;49.480;11.102;2023-05-14T08:11:11;5.35;;;4.70;;
13660;SDS011;6903;49.480;11.102;2023-05-14T08:13:36;5.43;;;4.82;;
13660;SDS011;6903;49.480;11.102;2023-05-14T08:16:01;5.43;;;4.75;;
13660;SDS011;6903;49.480;11.102;2023-05-14T08:18:27;5.22;;;4.72;;
13660;SDS011;6903;49.480;11.102;2023-05-14T08:20:52;5.85;;;4.75;;
13660;SDS011;6903;49.480;11.102;2023-05-14T08:23:17;5.97;;;4.82;;
13660;SDS011;6903;49.480;11.102;2023-05-14T08:25:43;6.80;;;5.60;;
13660;SDS011;6903;49.480;11.102;2023-05-14T08:28:08;6.43;;;5.20;;
13660;SDS011;6903;49.480;11.102;2023-05-14T08:30:33;5.95;;;5.13;;
13660;SDS011;6903;49.480;11.102;2023-05-14T08:32:59;5.13;;;4.65;;
13660;SDS011;6903;49.480;11.102;2023-05-14T08:35:24;7.28;;;5.00;;
13660;SDS011;6903;49.480;11.102;2023-05-14T08:37:49;6.72;;;4.97;;
13660;SDS011;6903;49.480;11.102;2023-05-14T08:40:16;6.13;;;5.28;;
13660;SDS011;6903;49.480;11.102;2023-05-14T08:42:42;6.90;;;5.30;;
13660;SDS011;6903;49.480;11.102;2023-05-14T08:45:10;5.85;;;5.10;;
13660;SDS011;6903;49.480;11.102;2023-05-14T08:47:42;5.50;;;4.75;;
13660;SDS011;6903;49.480;11.102;2023-05-14T08:50:11;6.40;;;5.65;;
13660;SDS011;6903;49.480;11.102;2023-05-14T08:52:36;6.10;;;5.50;;
13660;SDS011;6903;49.480;11.102;2023-05-14T08:55:03;5.32;;;4.80;;
13660;SDS011;6903;49.480;11.102;2023-05-14T08:57:29;6.03;;;5.30;;
13660;SDS011;6903;49.480;11.102;2023-05-14T08:59:56;5.60;;;5.05;;
13660;SDS011;6903;49.480;11.102;2023-05-14T09:02:22;5.72;;;5.22;;
13660;SDS011;6903;49.480;11.102;2023-05-14T09:04:53;5.72;;;5.20;;
13660;SDS011;6903;49.480;11.102;2023-05-14T09:07:21;6.03;;;5.30;;
13660;SDS011;6903;49.480;11.102;2023-05-14T09:09:46;5.57;;;5.00;;
13660;SDS011;6903;49.480;11.102;2023-05-14T09:12:12;6.55;;;5.00;;
13660;SDS011;6903;49.480;11.102;2023-05-14T09:14:37;6.25;;;5.38;;
13660;SDS011;6903;49.480;11.102;2023-05-14T09:17:02;5.53;;;5.00;;
13660;SDS011;6903;49.480;11.102;2023-05-14T09:19:28;5.93;;;4.85;;
13660;SDS011;6903;49.480;11.102;2023-05-14T09:21:54;5.85;;;5.05;;
13660;SDS011;6903;49.480;11.102;2023-05-14T09:24:23;5.38;;;4.78;;
13660;SDS011;6903;49.480;11.102;2023-05-14T09:26:51;5.20;;;4.70;;
13660;SDS011;6903;49.480;11.102;2023-05-14T09:29:25;5.03;;;4.50;;
13660;SDS011;6903;49.480;11.102;2023-05-14T09:31:52;5.43;;;4.80;;
13660;SDS011;6903;49.480;11.102;2023-05-14T09:34:31;5.93;;;4.90;;
13660;SDS011;6903;49.480;11.102;2023-05-14T09:36:59;5.13;;;4.63;;
13660;SDS011;6903;49.480;11.102;2023-05-14T09:39:25;4.68;;;4.28;;
13660;SDS011;6903;49.480;11.102;2023-05-14T09:41:52;5.50;;;4.93;;
13660;SDS011;6903;49.480;11.102;2023-05-14T09:44:18;4.97;;;4.47;;
13660;SDS011;6903;49.480;11.102;2023-05-14T09:46:44;5.18;;;4.55;;
13660;SDS011;6903;49.480;11.102;2023-05-14T09:49:09;6.82;;;4.68;;
13660;SDS011;6903;49.480;11.102;2023-05-14T09:51:36;5.90;;;4.47;;
13660;SDS011;6903;49.480;11.102;2023-05-14T09:54:02;5.22;;;4.63;;
13660;SDS011;6903;49.480;11.102;2023-05-14T09:56:29;4.88;;;4.35;;
13660;SDS011;6903;49.480;11.102;2023-05-14T09:58:54;4.57;;;4.18;;
13660;SDS011;6903;49.480;11.102;2023-05-14T10:01:20;5.63;;;4.63;;
13660;SDS011;6903;49.480;11.102;2023-05-14T10:03:46;5.60;;;4.32;;
13660;SDS011;6903;49.480;11.102;2023-05-14T10:06:12;5.25;;;4.75;;
13660;SDS011;6903;49.480;11.102;2023-05-14T10:08:41;5.57;;;4.50;;
13660;SDS011;6903;49.480;11.102;2023-05-14T10:11:16;5.43;;;4.50;;
13660;SDS011;6903;49.480;11.102;2023-05-14T10:13:50;4.80;;;4.40;;
13660;SDS011;6903;49.480;11.102;2023-05-14T10:16:27;4.63;;;4.22;;
13660;SDS011;6903;49.480;11.102;2023-05-14T10:19:00;4.55;;;4.15;;
13660;SDS011;6903;49.480;11.102;2023-05-14T10:21:31;5.95;;;4.45;;
13660;SDS011;6903;49.480;11.102;2023-05-14T10:23:59;4.28;;;3.83;;
13660;SDS011;6903;49.480;11.102;2023-05-14T10:26:25;4.82;;;4.10;;
13660;SDS011;6903;49.480;11.102;2023-05-14T10:28:52;5.47;;;4.50;;
13660;SDS011;6903;49.480;11.102;2023-05-14T10:31:17;4.25;;;3.85;;
13660;SDS011;6903;49.480;11.102;2023-05-14T10:33:47;4.22;;;3.83;;
13660;SDS011;6903;49.480;11.102;2023-05-14T10:36:14;4.18;;;3.88;;
13660;SDS011;6903;49.480;11.102;2023-05-14T10:38:44;5.50;;;4.90;;
13660;SDS011;6903;49.480;11.102;2023-05-14T10:41:11;5.57;;;4.20;;
13660;SDS011;6903;49.480;11.102;2023-05-14T10:43:39;9.05;;;6.03;;
13660;SDS011;6903;49.480;11.102;2023-05-14T10:46:06;5.30;;;3.78;;
13660;SDS011;6903;49.480;11.102;2023-05-14T10:48:32;3.90;;;3.50;;
13660;SDS011;6903;49.480;11.102;2023-05-14T10:50:58;4.18;;;3.78;;
13660;SDS011;6903;49.480;11.102;2023-05-14T10:53:31;5.25;;;4.28;;
13660;SDS011;6903;49.480;11.102;2023-05-14T10:56:01;4.38;;;3.78;;
13660;SDS011;6903;49.480;11.102;2023-05-14T10:58:29;4.78;;;4.10;;
13660;SDS011;6903;49.480;11.102;2023-05-14T11:00:56;3.80;;;3.42;;
13660;SDS011;6903;49.480;11.102;2023-05-14T11:03:21;4.13;;;3.72;;
13660;SDS011;6903;49.480;11.102;2023-05-14T11:05:47;4.65;;;3.42;;
13660;SDS011;6903;49.480;11.102;2023-05-14T11:08:12;4.00;;;3.60;;
13660;SDS011;6903;49.480;11.102;2023-05-14T11:10:38;3.92;;;3.53;;
13660;SDS011;6903;49.480;11.102;2023-05-14T11:13:03;4.00;;;3.65;;
13660;SDS011;6903;49.480;11.102;2023-05-14T11:15:28;4.20;;;3.85;;
13660;SDS011;6903;49.480;11.102;2023-05-14T11:17:55;3.72;;;3.42;;
13660;SDS011;6903;49.480;11.102;2023-05-14T11:20:20;3.70;;;3.40;;
13660;SDS011;6903;49.480;11.102;2023-05-14T11:22:46;4.32;;;3.90;;
13660;SDS011;6903;49.480;11.102;2023-05-14T11:25:13;4.78;;;4.10;;
13660;SDS011;6903;49.480;11.102;2023-05-14T11:27:39;4.30;;;3.90;;
13660;SDS011;6903;49.480;11.102;2023-05-14T11:30:15;4.03;;;3.63;;
13660;SDS011;6903;49.480;11.102;2023-05-14T11:32:45;4.10;;;3.70;;
13660;SDS011;6903;49.480;11.102;2023-05-14T11:35:12;4.13;;;3.72;;
13660;SDS011;6903;49.480;11.102;2023-05-14T11:37:38;4.32;;;3.70;;
13660;SDS011;6903;49.480;11.102;2023-05-14T11:40:06;4.60;;;3.90;;
13660;SDS011;6903;49.480;11.102;2023-05-14T11:42:38;4.70;;;3.40;;
13660;SDS011;6903;49.480;11.102;2023-05-14T11:45:04;5.65;;;4.32;;
13660;SDS011;6903;49.480;11.102;2023-05-14T11:47:30;4.45;;;3.95;;
13660;SDS011;6903;49.480;11.102;2023-05-14T11:49:55;15.20;;;9.05;;
13660;SDS011;6903;49.480;11.102;2023-05-14T11:52:21;4.10;;;3.70;;
13660;SDS011;6903;49.480;11.102;2023-05-14T11:54:46;4.25;;;3.88;;
13660;SDS011;6903;49.480;11.102;2023-05-14T11:57:15;4.07;;;3.78;;
13660;SDS011;6903;49.480;11.102;2023-05-14T11:59:44;4.25;;;3.55;;
13660;SDS011;6903;49.480;11.102;2023-05-14T12:02:11;3.58;;;3.28;;
13660;SDS011;6903;49.480;11.102;2023-05-14T12:04:38;5.70;;;4.00;;
13660;SDS011;6903;49.480;11.102;2023-05-14T12:07:09;4.10;;;3.72;;
13660;SDS011;6903;49.480;11.102;2023-05-14T12:09:36;4.32;;;3.85;;
13660;SDS011;6903;49.480;11.102;2023-05-14T12:12:07;4.57;;;3.97;;
13660;SDS011;6903;49.480;11.102;2023-05-14T12:14:36;4.18;;;3.78;;
13660;SDS011;6903;49.480;11.102;2023-05-14T12:17:02;4.40;;;3.83;;
13660;SDS011;6903;49.480;11.102;2023-05-14T12:19:28;4.35;;;3.95;;
13660;SDS011;6903;49.480;11.102;2023-05-14T12:21:54;4.68;;;4.25;;
13660;SDS011;6903;49.480;11.102;2023-05-14T12:24:19;4.30;;;3.90;;
13660;SDS011;6903;49.480;11.102;2023-05-14T12:26:48;4.38;;;3.97;;
13660;SDS011;6903;49.480;11.102;2023-05-14T12:29:15;5.53;;;3.80;;
13660;SDS011;6903;49.480;11.102;2023-05-14T12:31:44;3.78;;;3.45;;
13660;SDS011;6903;49.480;11.102;2023-05-14T12:34:11;4.72;;;3.80;;
13660;SDS011;6903;49.480;11.102;2023-05-14T12:36:37;3.80;;;3.50;;
13660;SDS011;6903;49.480;11.102;2023-05-14T12:39:02;4.25;;;3.85;;
13660;SDS011;6903;49.480;11.102;2023-05-14T12:41:31;6.57;;;4.47;;
13660;SDS011;6903;49.480;11.102;2023-05-14T12:43:57;4.40;;;4.00;;
13660;SDS011;6903;49.480;11.102;2023-05-14T12:46:23;4.03;;;3.72;;
13660;SDS011;6903;49.480;11.102;2023-05-14T12:48:49;3.97;;;3.58;;
13660;SDS011;6903;49.480;11.102;2023-05-14T12:51:15;3.70;;;3.40;;
13660;SDS011;6903;49.480;11.102;2023-05-14T12:53:40;3.90;;;3.55;;
13660;SDS011;6903;49.480;11.102;2023-05-14T12:56:05;3.83;;;3.53;;
13660;SDS011;6903;49.480;11.102;2023-05-14T12:58:31;4.18;;;3.53;;
13660;SDS011;6903;49.480;11.102;2023-05-14T13:00:56;3.85;;;3.55;;
13660;SDS011;6903;49.480;11.102;2023-05-14T13:03:22;4.03;;;3.72;;
13660;SDS011;6903;49.480;11.102;2023-05-14T13:05:47;4.15;;;3.65;;
13660;SDS011;6903;49.480;11.102;2023-05-14T13:08:12;3.90;;;3.50;;
13660;SDS011;6903;49.480;11.102;2023-05-14T13:10:42;4.18;;;3.78;;
13660;SDS011;6903;49.480;11.102;2023-05-14T13:13:08;4.13;;;3.72;;
13660;SDS011;6903;49.480;11.102;2023-05-14T13:15:34;3.80;;;3.40;;
13660;SDS011;6903;49.480;11.102;2023-05-14T13:18:00;4.95;;;3.70;;
13660;SDS011;6903;49.480;11.102;2023-05-14T13:20:25;3.45;;;3.15;;
13660;SDS011;6903;49.480;11.102;2023-05-14T13:22:51;3.95;;;3.53;;
13660;SDS011;6903;49.480;11.102;2023-05-14T13:25:17;3.47;;;3.17;;
13660;SDS011;6903;49.480;11.102;2023-05-14T13:27:42;3.97;;;3.67;;
13660;SDS011;6903;49.480;11.102;2023-05-14T13:30:07;3.17;;;2.97;;
13660;SDS011;6903;49.480;11.102;2023-05-14T13:32:33;3.67;;;3.38;;
13660;SDS011;6903;49.480;11.102;2023-05-14T13:34:58;3.80;;;3.50;;
13660;SDS011;6903;49.480;11.102;2023-05-14T13:37:23;4.32;;;3.00;;
13660;SDS011;6903;49.480;11.102;2023-05-14T13:39:49;4.22;;;3.83;;
13660;SDS011;6903;49.480;11.102;2023-05-14T13:42:15;3.35;;;3.05;;
13660;SDS011;6903;49.480;11.102;2023-05-14T13:44:40;3.20;;;2.88;;
13660;SDS011;6903;49.480;11.102;2023-05-14T13:47:05;3.35;;;3.05;;
13660;SDS011;6903;49.480;11.102;2023-05-14T13:49:31;3.40;;;3.13;;
13660;SDS011;6903;49.480;11.102;2023-05-14T13:51:56;3.35;;;3.05;;
13660;SDS011;6903;49.480;11.102;2023-05-14T13:54:21;3.78;;;3.30;;
13660;SDS011;6903;49.480;11.102;2023-05-14T13:56:47;3.50;;;3.20;;
13660;SDS011;6903;49.480;11.102;2023-05-14T13:59:12;3.38;;;3.08;;
13660;SDS011;6903;49.480;11.102;2023-05-14T14:01:37;3.47;;;3.03;;
13660;SDS011;6903;49.480;11.102;2023-05-14T14:04:03;4.65;;;3.38;;
13660;SDS011;6903;49.480;11.102;2023-05-14T14:06:29;4.10;;;3.25;;
13660;SDS011;6903;49.480;11.102;2023-05-14T14:08:55;3.60;;;3.25;;
13660;SDS011;6903;49.480;11.102;2023-05-14T14:11:21;3.47;;;3.17;;
13660;SDS011;6903;49.480;11.102;2023-05-14T14:13:46;3.75;;;3.30;;
13660;SDS011;6903;49.480;11.102;2023-05-14T14:16:12;3.63;;;3.33;;
13660;SDS011;6903;49.480;11.102;2023-05-14T14:18:37;3.70;;;3.00;;
13660;SDS011;6903;49.480;11.102;2023-05-14T14:21:02;3.63;;;3.00;;
13660;SDS011;6903;49.480;11.102;2023-05-14T14:23:28;3.70;;;3.40;;
13660;SDS011;6903;49.480;11.102;2023-05-14T14:25:53;4.10;;;3.50;;
13660;SDS011;6903;49.480;11.102;2023-05-14T14:28:18;3.60;;;3.30;;
13660;SDS011;6903;49.480;11.102;2023-05-14T14:30:44;3.25;;;2.92;;
13660;SDS011;6903;49.480;11.102;2023-05-14T14:33:09;3.40;;;3.10;;
13660;SDS011;6903;49.480;11.102;2023-05-14T14:35:35;3.63;;;3.33;;
13660;SDS011;6903;49.480;11.102;2023-05-14T14:38:01;3.55;;;3.25;;
13660;SDS011;6903;49.480;11.102;2023-05-14T14:40:26;4.13;;;3.50;;